createdAt,value
2022-11-16T00:04:12.081Z,40.80
2022-11-16T00:09:27.149Z,40.40
2022-11-16T00:14:33.078Z,45.60
2022-11-16T00:19:36.312Z,40.30
2022-11-16T00:24:39.912Z,37.20
2022-11-16T00:29:43.032Z,39.50
2022-11-16T00:34:46.409Z,38.90
2022-11-16T00:39:49.724Z,39.90
2022-11-16T00:44:53.320Z,43.20
2022-11-16T00:49:56.803Z,39.10
2022-11-16T00:55:00.230Z,32.80
2022-11-16T01:00:05.178Z,34.80
2022-11-16T01:05:10.403Z,31.80
2022-11-16T01:10:15.997Z,37.20
2022-11-16T01:15:21.607Z,34.40
2022-11-16T01:20:27.732Z,30.70
2022-11-16T01:25:31.211Z,32.10
2022-11-16T01:30:34.420Z,35.10
2022-11-16T01:35:37.672Z,28.20
2022-11-16T01:40:41.358Z,26.90
2022-11-16T01:45:45.404Z,28.20
2022-11-16T01:50:49.699Z,26.60
2022-11-16T01:55:53.504Z,35.30
2022-11-16T02:00:56.819Z,29.60
2022-11-16T02:06:23.406Z,27.20
2022-11-16T02:11:44.247Z,32.20
2022-11-16T02:16:53.717Z,25.30
2022-11-16T02:22:07.602Z,36.00
2022-11-16T02:27:33.791Z,35.90
2022-11-16T02:32:46.931Z,34.20
2022-11-16T02:37:59.863Z,36.70
2022-11-16T02:43:13.962Z,30.60
2022-11-16T02:48:26.737Z,25.00
2022-11-16T02:53:37.731Z,43.50
2022-11-16T02:58:41.123Z,29.30
2022-11-16T03:03:50.840Z,38.90
2022-11-16T03:09:06.322Z,43.60
2022-11-16T03:14:18.819Z,35.00
2022-11-16T03:19:41.776Z,29.60
2022-11-16T03:24:45.828Z,40.30
2022-11-16T03:29:59.079Z,25.00
2022-11-16T03:35:10.448Z,27.70
2022-11-16T03:40:16.385Z,19.90
2022-11-16T03:45:20.902Z,27.00
2022-11-16T03:50:24.912Z,24.70
2022-11-16T03:55:28.367Z,26.80
2022-11-16T04:00:32.056Z,28.70
2022-11-16T04:05:53.916Z,21.30
2022-11-16T04:11:15.951Z,25.10
2022-11-16T04:16:38.859Z,19.70
2022-11-16T04:22:07.596Z,19.90
2022-11-16T04:27:34.019Z,17.50
2022-11-16T04:32:56.272Z,25.80
2022-11-16T04:38:00.234Z,24.40
2022-11-16T04:43:05.162Z,19.00
2022-11-16T04:48:09.515Z,17.90
2022-11-16T04:53:13.708Z,19.70
2022-11-16T04:58:17.317Z,26.20
2022-11-16T05:03:21.495Z,17.70
2022-11-16T05:08:25.823Z,22.30
2022-11-16T05:13:29.329Z,22.40
2022-11-16T05:18:33.287Z,28.80
2022-11-16T05:23:56.185Z,20.40
2022-11-16T05:28:59.932Z,21.60
2022-11-16T05:34:03.799Z,30.10
2022-11-16T05:39:07.580Z,22.60
2022-11-16T05:44:11.343Z,24.90
2022-11-16T05:49:14.754Z,28.60
2022-11-16T05:54:27.889Z,28.90
2022-11-16T05:59:31.565Z,26.40
2022-11-16T06:04:34.965Z,35.30
2022-11-16T06:09:38.664Z,26.30
2022-11-16T06:14:42.270Z,21.70
2022-11-16T06:19:46.279Z,17.40
2022-11-16T06:24:49.846Z,20.30
2022-11-16T06:29:53.911Z,21.90
2022-11-16T06:34:57.295Z,17.20
2022-11-16T06:40:01.305Z,16.80
2022-11-16T06:45:05.930Z,14.30
2022-11-16T06:50:11.497Z,17.80
2022-11-16T06:55:16.332Z,16.10
2022-11-16T07:00:20.480Z,22.00
2022-11-16T07:05:24.208Z,15.10
2022-11-16T07:10:28.073Z,20.50
2022-11-16T07:15:34.150Z,12.90
2022-11-16T07:20:39.164Z,16.80
2022-11-16T07:25:47.270Z,18.20
2022-11-16T07:30:51.361Z,15.70
2022-11-16T07:35:54.979Z,14.70
2022-11-16T07:41:06.378Z,15.10
2022-11-16T07:51:39.145Z,18.80
2022-11-16T07:56:42.999Z,17.00
2022-11-16T08:01:50.102Z,16.50
2022-11-16T08:06:53.990Z,12.30
2022-11-16T08:11:57.665Z,15.90
2022-11-16T08:17:01.146Z,16.40
2022-11-16T08:22:04.650Z,15.40
2022-11-16T08:27:08.725Z,14.60
2022-11-16T08:32:12.395Z,24.00
2022-11-16T08:37:16.340Z,16.10
2022-11-16T08:42:20.477Z,24.00
2022-11-16T08:47:24.296Z,23.10
2022-11-16T08:52:27.710Z,20.00
2022-11-16T08:57:31.661Z,23.70
2022-11-16T09:02:35.526Z,19.20
2022-11-16T09:07:40.488Z,16.90
2022-11-16T09:12:44.734Z,22.80
2022-11-16T09:17:48.983Z,22.30
2022-11-16T09:22:52.571Z,18.60
2022-11-16T09:27:57.408Z,21.30
2022-11-16T09:33:01.501Z,18.70
2022-11-16T09:38:05.057Z,21.40
2022-11-16T09:43:27.906Z,21.10
2022-11-16T09:48:36.892Z,18.30
2022-11-16T09:54:07.725Z,17.40
2022-11-16T09:59:26.113Z,18.00
2022-11-16T10:04:39.355Z,16.40
2022-11-16T10:09:46.016Z,17.00
2022-11-16T10:14:53.807Z,15.00
2022-11-16T10:20:30.206Z,13.90
2022-11-16T10:26:04.614Z,15.70
2022-11-16T10:31:39.614Z,12.40
2022-11-16T10:36:44.866Z,12.20
2022-11-16T10:41:51.171Z,13.00
2022-11-16T10:47:22.814Z,14.60
2022-11-16T10:52:27.265Z,12.70
2022-11-16T10:58:04.998Z,16.70
2022-11-16T11:03:11.258Z,12.30
2022-11-16T11:08:26.684Z,14.90
2022-11-16T11:13:30.436Z,12.80
2022-11-16T11:18:35.079Z,16.90
2022-11-16T11:23:51.359Z,15.30
2022-11-16T11:28:56.680Z,10.60
2022-11-16T11:34:11.025Z,13.00
2022-11-16T11:39:21.615Z,11.60
2022-11-16T11:44:50.257Z,7.90
2022-11-16T11:50:22.175Z,10.30
2022-11-16T11:55:28.053Z,10.50
2022-11-16T12:00:59.541Z,15.00
2022-11-16T12:06:28.046Z,7.70
2022-11-16T12:11:42.493Z,9.90
2022-11-16T12:17:19.667Z,14.00
2022-11-16T12:22:58.519Z,11.40
2022-11-16T12:28:18.202Z,7.90
2022-11-16T12:33:47.296Z,8.00
2022-11-16T12:39:28.384Z,11.80
2022-11-16T12:44:59.089Z,8.00
2022-11-16T12:50:06.848Z,6.90
2022-11-16T12:55:40.528Z,6.30
2022-11-16T13:01:11.941Z,22.20
2022-11-16T13:06:44.233Z,15.90
2022-11-16T13:11:58.692Z,15.20
2022-11-16T13:17:05.414Z,11.80
2022-11-16T13:22:22.728Z,9.50
2022-11-16T13:27:32.420Z,9.80
2022-11-16T13:32:54.297Z,10.60
2022-11-16T13:38:01.210Z,10.90
2022-11-16T13:43:11.691Z,11.30
2022-11-16T13:48:25.973Z,5.50
2022-11-16T13:59:00.548Z,5.00
2022-11-16T14:04:44.717Z,4.00
2022-11-16T14:09:50.382Z,8.00
2022-11-16T14:15:20.744Z,4.80
2022-11-16T14:20:54.057Z,5.20
2022-11-16T14:26:48.301Z,4.90
2022-11-16T14:31:54.060Z,4.40
2022-11-16T14:36:59.189Z,5.40
2022-11-16T14:42:07.583Z,4.80
2022-11-16T14:47:29.925Z,4.40
2022-11-16T14:52:50.339Z,3.30
2022-11-16T14:58:20.198Z,5.60
2022-11-16T15:03:33.009Z,4.50
2022-11-16T15:09:04.162Z,5.80
2022-11-16T15:14:11.541Z,3.70
2022-11-16T15:19:16.954Z,2.20
2022-11-16T15:24:35.762Z,2.60
2022-11-16T15:29:40.691Z,3.10
2022-11-16T15:34:55.535Z,4.30
2022-11-16T15:40:01.857Z,2.30
2022-11-16T15:45:23.273Z,2.90
2022-11-16T15:50:28.434Z,2.20
2022-11-16T15:55:34.696Z,2.30
2022-11-16T16:00:38.740Z,4.70
2022-11-16T16:05:42.704Z,2.30
2022-11-16T16:10:59.585Z,3.20
2022-11-16T16:16:26.923Z,2.30
2022-11-16T16:21:43.413Z,3.30
2022-11-16T16:26:47.531Z,4.20
2022-11-16T16:31:51.874Z,4.20
2022-11-16T16:36:56.233Z,3.70
2022-11-16T16:42:00.890Z,5.50
2022-11-16T16:47:06.291Z,7.00
2022-11-16T16:52:13.902Z,4.60
2022-11-16T16:57:22.086Z,6.50
2022-11-16T17:02:31.253Z,6.90
2022-11-16T17:07:36.160Z,8.60
2022-11-16T17:12:43.713Z,4.90
2022-11-16T17:17:50.111Z,6.50
2022-11-16T17:23:00.656Z,8.30
2022-11-16T17:28:06.867Z,11.20
2022-11-16T17:33:11.140Z,6.80
2022-11-16T17:38:16.744Z,7.50
2022-11-16T17:43:20.778Z,8.00
2022-11-16T17:48:25.554Z,6.40
2022-11-16T17:53:32.640Z,9.80
2022-11-16T17:58:36.721Z,10.90
2022-11-16T18:03:40.902Z,11.00
2022-11-16T18:08:45.456Z,9.20
2022-11-16T18:13:54.677Z,8.40
2022-11-16T18:19:01.283Z,8.80
2022-11-16T18:24:07.050Z,9.00
2022-11-16T18:29:16.020Z,10.60
2022-11-16T18:34:21.663Z,12.20
2022-11-16T18:39:25.801Z,8.60
2022-11-16T18:44:31.216Z,8.30
2022-11-16T18:49:35.582Z,10.30
2022-11-16T18:54:40.397Z,11.10
2022-11-16T18:59:44.970Z,11.80
2022-11-16T19:04:49.744Z,11.40
2022-11-16T19:09:54.877Z,11.40
2022-11-16T19:14:59.690Z,9.40
2022-11-16T19:20:04.426Z,16.40
2022-11-16T19:25:10.632Z,12.60
2022-11-16T19:30:15.400Z,8.80
2022-11-16T19:35:20.439Z,11.40
2022-11-16T19:40:25.348Z,10.80
2022-11-16T19:45:29.819Z,11.30
2022-11-16T19:50:35.973Z,13.70
2022-11-16T19:55:41.614Z,14.50
2022-11-16T20:00:46.214Z,11.80
2022-11-16T20:05:50.686Z,11.00
2022-11-16T20:10:54.280Z,10.80
2022-11-16T20:16:02.072Z,14.50
2022-11-16T20:26:15.888Z,12.50
2022-11-16T20:31:32.546Z,10.80
2022-11-16T20:36:37.541Z,15.00
2022-11-16T20:41:42.312Z,13.20
2022-11-16T20:46:46.663Z,12.10
2022-11-16T20:51:51.756Z,14.80
2022-11-16T20:56:56.932Z,12.00
2022-11-16T21:02:01.126Z,11.00
2022-11-16T21:07:04.707Z,13.50
2022-11-16T21:12:30.883Z,13.10
2022-11-16T21:17:34.636Z,11.50
2022-11-16T21:22:38.892Z,10.90
2022-11-16T21:27:43.198Z,9.70
2022-11-16T21:32:46.972Z,11.70
2022-11-16T21:37:50.465Z,11.40
2022-11-16T21:42:54.080Z,11.30
2022-11-16T21:47:58.630Z,12.60
2022-11-16T21:53:02.481Z,9.70
2022-11-16T21:58:06.666Z,12.00
2022-11-16T22:03:10.706Z,8.20
2022-11-16T22:08:14.635Z,10.20
2022-11-16T22:13:19.929Z,9.50
2022-11-16T22:18:24.005Z,7.40
2022-11-16T22:23:29.184Z,9.30
2022-11-16T22:28:33.921Z,9.20
2022-11-16T22:33:38.190Z,8.80
2022-11-16T22:38:42.217Z,9.70
2022-11-16T22:43:45.721Z,10.20
2022-11-16T22:48:49.147Z,12.90
2022-11-16T22:53:54.600Z,8.40
2022-11-16T22:58:58.786Z,12.40
2022-11-16T23:04:02.816Z,9.30
2022-11-16T23:09:06.751Z,10.70
2022-11-16T23:14:35.092Z,11.90
2022-11-16T23:19:57.296Z,11.30
2022-11-16T23:25:20.489Z,11.10
2022-11-16T23:30:24.506Z,13.90
2022-11-16T23:35:29.247Z,9.90
2022-11-16T23:40:37.553Z,9.40
2022-11-16T23:45:43.035Z,11.80
2022-11-16T23:50:50.178Z,12.90
2022-11-16T23:55:54.290Z,12.20
